sensor_id;sensor_type;location;lat;lon;timestamp;P1;durP1;ratioP1;P2;durP2;ratioP2
43070;SDS011;36278;47.952;21.714;2023-04-03T00:02:08;2.50;;;1.90;;
43070;SDS011;36278;47.952;21.714;2023-04-03T00:04:34;3.30;;;2.30;;
43070;SDS011;36278;47.952;21.714;2023-04-03T00:06:59;3.60;;;1.87;;
43070;SDS011;36278;47.952;21.714;2023-04-03T00:09:25;4.20;;;1.97;;
43070;SDS011;36278;47.952;21.714;2023-04-03T00:11:51;2.97;;;2.03;;
43070;SDS011;36278;47.952;21.714;2023-04-03T00:14:16;2.77;;;1.90;;
43070;SDS011;36278;47.952;21.714;2023-04-03T00:16:42;2.17;;;1.70;;
43070;SDS011;36278;47.952;21.714;2023-04-03T00:19:07;2.60;;;1.90;;
43070;SDS011;36278;47.952;21.714;2023-04-03T00:21:33;2.93;;;1.90;;
43070;SDS011;36278;47.952;21.714;2023-04-03T00:23:58;3.80;;;1.93;;
43070;SDS011;36278;47.952;21.714;2023-04-03T00:26:25;2.97;;;2.00;;
43070;SDS011;36278;47.952;21.714;2023-04-03T00:28:50;2.50;;;1.90;;
43070;SDS011;36278;47.952;21.714;2023-04-03T00:31:16;3.30;;;2.30;;
43070;SDS011;36278;47.952;21.714;2023-04-03T00:33:41;5.63;;;2.00;;
43070;SDS011;36278;47.952;21.714;2023-04-03T00:36:08;3.50;;;2.23;;
43070;SDS011;36278;47.952;21.714;2023-04-03T00:38:34;3.07;;;1.97;;
43070;SDS011;36278;47.952;21.714;2023-04-03T00:41:00;2.83;;;2.23;;
43070;SDS011;36278;47.952;21.714;2023-04-03T00:43:26;4.03;;;2.50;;
43070;SDS011;36278;47.952;21.714;2023-04-03T00:45:53;4.03;;;2.60;;
43070;SDS011;36278;47.952;21.714;2023-04-03T00:48:26;4.30;;;2.80;;
43070;SDS011;36278;47.952;21.714;2023-04-03T00:51:11;3.87;;;2.67;;
43070;SDS011;36278;47.952;21.714;2023-04-03T00:53:41;4.00;;;2.83;;
43070;SDS011;36278;47.952;21.714;2023-04-03T00:56:12;3.67;;;2.30;;
43070;SDS011;36278;47.952;21.714;2023-04-03T00:58:42;4.73;;;2.63;;
43070;SDS011;36278;47.952;21.714;2023-04-03T01:01:12;3.50;;;2.40;;
43070;SDS011;36278;47.952;21.714;2023-04-03T01:03:43;4.17;;;2.63;;
43070;SDS011;36278;47.952;21.714;2023-04-03T01:06:08;3.93;;;2.60;;
43070;SDS011;36278;47.952;21.714;2023-04-03T01:08:34;4.10;;;2.17;;
43070;SDS011;36278;47.952;21.714;2023-04-03T01:11:00;3.47;;;2.27;;
43070;SDS011;36278;47.952;21.714;2023-04-03T01:13:30;2.47;;;1.80;;
43070;SDS011;36278;47.952;21.714;2023-04-03T01:16:00;5.63;;;2.10;;
43070;SDS011;36278;47.952;21.714;2023-04-03T01:18:28;5.13;;;1.90;;
43070;SDS011;36278;47.952;21.714;2023-04-03T01:26:27;2.23;;;1.73;;
43070;SDS011;36278;47.952;21.714;2023-04-03T01:28:53;3.20;;;1.63;;
43070;SDS011;36278;47.952;21.714;2023-04-03T01:31:25;2.90;;;1.70;;
43070;SDS011;36278;47.952;21.714;2023-04-03T01:33:53;2.17;;;1.70;;
43070;SDS011;36278;47.952;21.714;2023-04-03T01:36:24;2.30;;;2.00;;
43070;SDS011;36278;47.952;21.714;2023-04-03T01:38:51;2.90;;;1.77;;
43070;SDS011;36278;47.952;21.714;2023-04-03T01:41:18;2.30;;;1.70;;
43070;SDS011;36278;47.952;21.714;2023-04-03T01:43:46;2.17;;;1.77;;
43070;SDS011;36278;47.952;21.714;2023-04-03T01:46:12;2.53;;;1.87;;
43070;SDS011;36278;47.952;21.714;2023-04-03T01:48:38;3.03;;;1.97;;
43070;SDS011;36278;47.952;21.714;2023-04-03T01:51:04;4.33;;;2.17;;
43070;SDS011;36278;47.952;21.714;2023-04-03T01:53:29;3.23;;;2.07;;
43070;SDS011;36278;47.952;21.714;2023-04-03T01:55:55;2.77;;;2.10;;
43070;SDS011;36278;47.952;21.714;2023-04-03T01:58:20;2.53;;;1.87;;
43070;SDS011;36278;47.952;21.714;2023-04-03T02:00:45;3.23;;;2.23;;
43070;SDS011;36278;47.952;21.714;2023-04-03T02:03:11;2.87;;;2.10;;
43070;SDS011;36278;47.952;21.714;2023-04-03T02:05:37;2.40;;;1.87;;
43070;SDS011;36278;47.952;21.714;2023-04-03T02:08:03;4.23;;;1.90;;
43070;SDS011;36278;47.952;21.714;2023-04-03T02:10:28;2.93;;;1.80;;
43070;SDS011;36278;47.952;21.714;2023-04-03T02:12:54;3.00;;;1.90;;
43070;SDS011;36278;47.952;21.714;2023-04-03T02:15:19;2.93;;;1.87;;
43070;SDS011;36278;47.952;21.714;2023-04-03T02:17:45;3.10;;;1.80;;
43070;SDS011;36278;47.952;21.714;2023-04-03T02:20:11;3.27;;;1.77;;
43070;SDS011;36278;47.952;21.714;2023-04-03T02:22:37;3.27;;;1.90;;
43070;SDS011;36278;47.952;21.714;2023-04-03T02:25:02;2.80;;;2.00;;
43070;SDS011;36278;47.952;21.714;2023-04-03T02:27:28;3.30;;;1.60;;
43070;SDS011;36278;47.952;21.714;2023-04-03T02:29:53;2.53;;;1.53;;
43070;SDS011;36278;47.952;21.714;2023-04-03T02:32:19;3.93;;;1.70;;
43070;SDS011;36278;47.952;21.714;2023-04-03T02:34:44;3.90;;;2.17;;
43070;SDS011;36278;47.952;21.714;2023-04-03T02:37:10;2.57;;;1.63;;
43070;SDS011;36278;47.952;21.714;2023-04-03T02:39:36;3.03;;;1.70;;
43070;SDS011;36278;47.952;21.714;2023-04-03T02:42:02;2.70;;;2.00;;
43070;SDS011;36278;47.952;21.714;2023-04-03T02:44:27;2.10;;;1.60;;
43070;SDS011;36278;47.952;21.714;2023-04-03T02:46:53;5.77;;;1.67;;
43070;SDS011;36278;47.952;21.714;2023-04-03T02:49:18;2.37;;;1.60;;
43070;SDS011;36278;47.952;21.714;2023-04-03T02:51:44;1.70;;;1.53;;
43070;SDS011;36278;47.952;21.714;2023-04-03T02:54:09;2.67;;;1.67;;
43070;SDS011;36278;47.952;21.714;2023-04-03T02:56:35;1.57;;;1.37;;
43070;SDS011;36278;47.952;21.714;2023-04-03T02:59:00;4.30;;;1.60;;
43070;SDS011;36278;47.952;21.714;2023-04-03T03:01:26;3.27;;;1.50;;
43070;SDS011;36278;47.952;21.714;2023-04-03T03:03:56;2.60;;;1.50;;
43070;SDS011;36278;47.952;21.714;2023-04-03T03:06:22;1.93;;;1.30;;
43070;SDS011;36278;47.952;21.714;2023-04-03T03:08:47;3.63;;;1.90;;
43070;SDS011;36278;47.952;21.714;2023-04-03T03:11:13;6.03;;;1.60;;
43070;SDS011;36278;47.952;21.714;2023-04-03T03:13:38;2.33;;;1.70;;
43070;SDS011;36278;47.952;21.714;2023-04-03T03:16:04;2.10;;;1.40;;
43070;SDS011;36278;47.952;21.714;2023-04-03T03:18:30;3.60;;;1.73;;
43070;SDS011;36278;47.952;21.714;2023-04-03T03:20:57;2.63;;;1.90;;
43070;SDS011;36278;47.952;21.714;2023-04-03T03:23:25;2.37;;;1.57;;
43070;SDS011;36278;47.952;21.714;2023-04-03T03:26:02;2.63;;;1.70;;
43070;SDS011;36278;47.952;21.714;2023-04-03T03:28:32;3.23;;;2.00;;
43070;SDS011;36278;47.952;21.714;2023-04-03T03:30:59;3.40;;;1.80;;
43070;SDS011;36278;47.952;21.714;2023-04-03T03:33:25;2.90;;;1.77;;
43070;SDS011;36278;47.952;21.714;2023-04-03T03:35:52;6.83;;;2.27;;
43070;SDS011;36278;47.952;21.714;2023-04-03T03:38:18;3.07;;;1.83;;
43070;SDS011;36278;47.952;21.714;2023-04-03T03:40:44;3.30;;;2.10;;
43070;SDS011;36278;47.952;21.714;2023-04-03T03:43:09;3.27;;;1.50;;
43070;SDS011;36278;47.952;21.714;2023-04-03T03:45:35;4.17;;;1.93;;
43070;SDS011;36278;47.952;21.714;2023-04-03T03:48:01;2.50;;;1.93;;
43070;SDS011;36278;47.952;21.714;2023-04-03T03:50:28;3.17;;;1.97;;
43070;SDS011;36278;47.952;21.714;2023-04-03T03:52:53;2.63;;;1.50;;
43070;SDS011;36278;47.952;21.714;2023-04-03T03:55:19;3.20;;;1.60;;
43070;SDS011;36278;47.952;21.714;2023-04-03T03:57:44;3.00;;;1.13;;
43070;SDS011;36278;47.952;21.714;2023-04-03T04:00:10;2.67;;;1.30;;
43070;SDS011;36278;47.952;21.714;2023-04-03T04:02:36;1.37;;;1.10;;
43070;SDS011;36278;47.952;21.714;2023-04-03T04:05:01;2.20;;;1.10;;
43070;SDS011;36278;47.952;21.714;2023-04-03T04:07:27;2.00;;;1.30;;
43070;SDS011;36278;47.952;21.714;2023-04-03T04:09:54;2.27;;;1.20;;
43070;SDS011;36278;47.952;21.714;2023-04-03T04:12:20;2.00;;;1.43;;
43070;SDS011;36278;47.952;21.714;2023-04-03T04:14:46;1.93;;;1.33;;
43070;SDS011;36278;47.952;21.714;2023-04-03T04:17:14;2.20;;;1.43;;
43070;SDS011;36278;47.952;21.714;2023-04-03T04:19:40;1.53;;;0.90;;
43070;SDS011;36278;47.952;21.714;2023-04-03T04:22:06;2.37;;;1.37;;
43070;SDS011;36278;47.952;21.714;2023-04-03T04:24:32;6.53;;;1.40;;
43070;SDS011;36278;47.952;21.714;2023-04-03T04:26:57;2.10;;;1.40;;
43070;SDS011;36278;47.952;21.714;2023-04-03T04:29:23;4.17;;;1.10;;
43070;SDS011;36278;47.952;21.714;2023-04-03T04:31:48;1.67;;;1.00;;
43070;SDS011;36278;47.952;21.714;2023-04-03T04:34:14;2.57;;;1.43;;
43070;SDS011;36278;47.952;21.714;2023-04-03T04:36:40;2.83;;;1.10;;
43070;SDS011;36278;47.952;21.714;2023-04-03T04:39:05;1.67;;;0.90;;
43070;SDS011;36278;47.952;21.714;2023-04-03T04:41:31;2.90;;;0.80;;
43070;SDS011;36278;47.952;21.714;2023-04-03T04:43:57;2.03;;;1.13;;
43070;SDS011;36278;47.952;21.714;2023-04-03T04:46:22;1.27;;;1.00;;
43070;SDS011;36278;47.952;21.714;2023-04-03T04:48:48;1.40;;;1.10;;
43070;SDS011;36278;47.952;21.714;2023-04-03T04:51:13;1.60;;;0.90;;
43070;SDS011;36278;47.952;21.714;2023-04-03T04:53:39;3.57;;;1.10;;
43070;SDS011;36278;47.952;21.714;2023-04-03T04:56:05;2.50;;;1.43;;
43070;SDS011;36278;47.952;21.714;2023-04-03T04:58:31;1.90;;;1.07;;
43070;SDS011;36278;47.952;21.714;2023-04-03T05:01:03;2.27;;;1.00;;
43070;SDS011;36278;47.952;21.714;2023-04-03T05:03:33;4.57;;;1.00;;
43070;SDS011;36278;47.952;21.714;2023-04-03T05:05:59;2.67;;;1.30;;
43070;SDS011;36278;47.952;21.714;2023-04-03T05:08:25;5.37;;;1.40;;
43070;SDS011;36278;47.952;21.714;2023-04-03T05:10:51;2.13;;;1.00;;
43070;SDS011;36278;47.952;21.714;2023-04-03T05:13:18;1.73;;;1.23;;
43070;SDS011;36278;47.952;21.714;2023-04-03T05:15:43;1.20;;;0.93;;
43070;SDS011;36278;47.952;21.714;2023-04-03T05:18:09;1.93;;;1.20;;
43070;SDS011;36278;47.952;21.714;2023-04-03T05:20:34;2.33;;;1.20;;
43070;SDS011;36278;47.952;21.714;2023-04-03T05:23:00;1.73;;;1.17;;
43070;SDS011;36278;47.952;21.714;2023-04-03T05:25:25;1.87;;;1.13;;
43070;SDS011;36278;47.952;21.714;2023-04-03T05:27:51;1.63;;;1.37;;
43070;SDS011;36278;47.952;21.714;2023-04-03T05:30:16;1.70;;;1.27;;
43070;SDS011;36278;47.952;21.714;2023-04-03T05:32:42;6.63;;;1.60;;
43070;SDS011;36278;47.952;21.714;2023-04-03T05:35:08;3.00;;;1.10;;
43070;SDS011;36278;47.952;21.714;2023-04-03T05:37:34;2.27;;;1.50;;
43070;SDS011;36278;47.952;21.714;2023-04-03T05:40:00;2.23;;;1.40;;
43070;SDS011;36278;47.952;21.714;2023-04-03T05:42:26;2.33;;;1.40;;
43070;SDS011;36278;47.952;21.714;2023-04-03T05:44:52;3.73;;;1.70;;
43070;SDS011;36278;47.952;21.714;2023-04-03T05:47:18;2.13;;;1.33;;
43070;SDS011;36278;47.952;21.714;2023-04-03T05:49:43;3.17;;;1.10;;
43070;SDS011;36278;47.952;21.714;2023-04-03T05:52:31;2.37;;;1.47;;
43070;SDS011;36278;47.952;21.714;2023-04-03T05:55:01;1.87;;;1.17;;
43070;SDS011;36278;47.952;21.714;2023-04-03T05:57:27;1.43;;;0.93;;
43070;SDS011;36278;47.952;21.714;2023-04-03T05:59:52;2.33;;;0.93;;
43070;SDS011;36278;47.952;21.714;2023-04-03T06:02:19;3.37;;;1.10;;
43070;SDS011;36278;47.952;21.714;2023-04-03T06:04:46;1.67;;;1.10;;
43070;SDS011;36278;47.952;21.714;2023-04-03T06:07:14;2.27;;;1.03;;
43070;SDS011;36278;47.952;21.714;2023-04-03T06:09:41;1.20;;;0.90;;
43070;SDS011;36278;47.952;21.714;2023-04-03T06:12:07;1.60;;;1.00;;
43070;SDS011;36278;47.952;21.714;2023-04-03T06:14:34;1.10;;;1.00;;
43070;SDS011;36278;47.952;21.714;2023-04-03T06:17:00;1.77;;;1.30;;
43070;SDS011;36278;47.952;21.714;2023-04-03T06:19:26;6.93;;;1.30;;
43070;SDS011;36278;47.952;21.714;2023-04-03T06:21:52;2.97;;;1.07;;
43070;SDS011;36278;47.952;21.714;2023-04-03T06:24:18;1.70;;;1.20;;
43070;SDS011;36278;47.952;21.714;2023-04-03T06:26:45;4.40;;;1.00;;
43070;SDS011;36278;47.952;21.714;2023-04-03T06:29:11;4.17;;;1.20;;
43070;SDS011;36278;47.952;21.714;2023-04-03T06:31:36;3.33;;;1.47;;
43070;SDS011;36278;47.952;21.714;2023-04-03T06:34:02;1.43;;;1.10;;
43070;SDS011;36278;47.952;21.714;2023-04-03T06:36:28;2.27;;;1.07;;
43070;SDS011;36278;47.952;21.714;2023-04-03T06:38:54;3.73;;;0.73;;
43070;SDS011;36278;47.952;21.714;2023-04-03T06:41:20;3.73;;;1.17;;
43070;SDS011;36278;47.952;21.714;2023-04-03T06:43:46;2.43;;;1.00;;
43070;SDS011;36278;47.952;21.714;2023-04-03T06:46:13;1.20;;;0.73;;
43070;SDS011;36278;47.952;21.714;2023-04-03T06:48:43;2.60;;;0.80;;
43070;SDS011;36278;47.952;21.714;2023-04-03T06:51:26;2.70;;;1.00;;
43070;SDS011;36278;47.952;21.714;2023-04-03T06:53:54;1.40;;;0.80;;
43070;SDS011;36278;47.952;21.714;2023-04-03T06:56:21;2.23;;;0.70;;
43070;SDS011;36278;47.952;21.714;2023-04-03T06:58:47;5.63;;;1.03;;
43070;SDS011;36278;47.952;21.714;2023-04-03T07:01:14;9.30;;;0.87;;
43070;SDS011;36278;47.952;21.714;2023-04-03T07:03:41;6.87;;;1.43;;
43070;SDS011;36278;47.952;21.714;2023-04-03T07:06:07;3.50;;;0.80;;
43070;SDS011;36278;47.952;21.714;2023-04-03T07:08:34;1.30;;;0.70;;
43070;SDS011;36278;47.952;21.714;2023-04-03T07:11:00;3.57;;;0.60;;
43070;SDS011;36278;47.952;21.714;2023-04-03T07:13:27;4.97;;;1.00;;
43070;SDS011;36278;47.952;21.714;2023-04-03T07:15:53;2.37;;;0.50;;
43070;SDS011;36278;47.952;21.714;2023-04-03T07:18:19;4.00;;;0.80;;
43070;SDS011;36278;47.952;21.714;2023-04-03T07:20:44;3.27;;;0.80;;
43070;SDS011;36278;47.952;21.714;2023-04-03T07:23:10;2.27;;;0.70;;
43070;SDS011;36278;47.952;21.714;2023-04-03T07:25:37;3.77;;;0.80;;
43070;SDS011;36278;47.952;21.714;2023-04-03T07:28:08;7.10;;;0.67;;
43070;SDS011;36278;47.952;21.714;2023-04-03T07:30:33;2.73;;;0.63;;
43070;SDS011;36278;47.952;21.714;2023-04-03T07:32:59;3.43;;;0.70;;
43070;SDS011;36278;47.952;21.714;2023-04-03T07:35:26;4.57;;;0.67;;
43070;SDS011;36278;47.952;21.714;2023-04-03T07:37:52;4.00;;;1.13;;
43070;SDS011;36278;47.952;21.714;2023-04-03T07:40:18;4.57;;;0.73;;
43070;SDS011;36278;47.952;21.714;2023-04-03T07:42:43;3.33;;;0.80;;
43070;SDS011;36278;47.952;21.714;2023-04-03T07:45:10;5.43;;;0.97;;
43070;SDS011;36278;47.952;21.714;2023-04-03T07:47:35;6.43;;;0.63;;
43070;SDS011;36278;47.952;21.714;2023-04-03T07:50:01;6.73;;;0.80;;
43070;SDS011;36278;47.952;21.714;2023-04-03T07:52:27;3.80;;;0.80;;
43070;SDS011;36278;47.952;21.714;2023-04-03T07:54:52;4.70;;;1.00;;
43070;SDS011;36278;47.952;21.714;2023-04-03T07:57:18;1.07;;;0.73;;
43070;SDS011;36278;47.952;21.714;2023-04-03T07:59:44;5.37;;;0.57;;
43070;SDS011;36278;47.952;21.714;2023-04-03T08:02:09;3.73;;;0.70;;
43070;SDS011;36278;47.952;21.714;2023-04-03T08:04:35;3.07;;;0.67;;
43070;SDS011;36278;47.952;21.714;2023-04-03T08:07:01;5.50;;;0.83;;
43070;SDS011;36278;47.952;21.714;2023-04-03T08:09:26;2.53;;;0.60;;
43070;SDS011;36278;47.952;21.714;2023-04-03T08:11:52;6.87;;;1.10;;
43070;SDS011;36278;47.952;21.714;2023-04-03T08:14:18;6.57;;;0.90;;
43070;SDS011;36278;47.952;21.714;2023-04-03T08:16:45;2.80;;;0.80;;
43070;SDS011;36278;47.952;21.714;2023-04-03T08:19:11;7.03;;;1.00;;
43070;SDS011;36278;47.952;21.714;2023-04-03T08:21:39;6.67;;;1.13;;
43070;SDS011;36278;47.952;21.714;2023-04-03T08:24:06;6.23;;;1.20;;
43070;SDS011;36278;47.952;21.714;2023-04-03T08:26:32;8.17;;;1.27;;
43070;SDS011;36278;47.952;21.714;2023-04-03T08:28:58;6.63;;;0.83;;
43070;SDS011;36278;47.952;21.714;2023-04-03T08:31:24;10.67;;;1.00;;
43070;SDS011;36278;47.952;21.714;2023-04-03T08:33:50;3.17;;;1.10;;
43070;SDS011;36278;47.952;21.714;2023-04-03T08:36:22;2.20;;;0.70;;
43070;SDS011;36278;47.952;21.714;2023-04-03T08:38:50;3.90;;;0.90;;
43070;SDS011;36278;47.952;21.714;2023-04-03T08:49:33;10.33;;;0.83;;
43070;SDS011;36278;47.952;21.714;2023-04-03T08:52:09;3.53;;;1.00;;
43070;SDS011;36278;47.952;21.714;2023-04-03T08:54:58;3.50;;;0.70;;
43070;SDS011;36278;47.952;21.714;2023-04-03T08:57:44;6.43;;;0.90;;
43070;SDS011;36278;47.952;21.714;2023-04-03T09:02:41;3.80;;;0.60;;
43070;SDS011;36278;47.952;21.714;2023-04-03T09:05:17;7.50;;;1.27;;
43070;SDS011;36278;47.952;21.714;2023-04-03T09:08:04;10.50;;;1.10;;
43070;SDS011;36278;47.952;21.714;2023-04-03T09:10:38;3.43;;;0.80;;
43070;SDS011;36278;47.952;21.714;2023-04-03T09:13:13;2.47;;;1.47;;
43070;SDS011;36278;47.952;21.714;2023-04-03T09:15:58;4.00;;;1.60;;
43070;SDS011;36278;47.952;21.714;2023-04-03T09:18:30;6.57;;;0.93;;
43070;SDS011;36278;47.952;21.714;2023-04-03T09:21:08;4.80;;;0.93;;
43070;SDS011;36278;47.952;21.714;2023-04-03T09:23:47;1.93;;;0.87;;
43070;SDS011;36278;47.952;21.714;2023-04-03T09:26:18;2.23;;;1.00;;
43070;SDS011;36278;47.952;21.714;2023-04-03T09:28:44;2.63;;;0.93;;
43070;SDS011;36278;47.952;21.714;2023-04-03T09:33:49;14.63;;;1.37;;
43070;SDS011;36278;47.952;21.714;2023-04-03T09:39:04;12.13;;;1.60;;
43070;SDS011;36278;47.952;21.714;2023-04-03T09:41:34;2.87;;;0.70;;
43070;SDS011;36278;47.952;21.714;2023-04-03T09:44:01;10.37;;;1.07;;
43070;SDS011;36278;47.952;21.714;2023-04-03T09:46:30;5.07;;;0.70;;
43070;SDS011;36278;47.952;21.714;2023-04-03T09:48:59;2.07;;;0.80;;
43070;SDS011;36278;47.952;21.714;2023-04-03T09:51:27;7.77;;;0.80;;
43070;SDS011;36278;47.952;21.714;2023-04-03T09:53:54;2.67;;;0.80;;
43070;SDS011;36278;47.952;21.714;2023-04-03T09:56:22;3.93;;;0.70;;
43070;SDS011;36278;47.952;21.714;2023-04-03T10:01:34;6.63;;;0.80;;
43070;SDS011;36278;47.952;21.714;2023-04-03T10:04:12;14.57;;;1.07;;
43070;SDS011;36278;47.952;21.714;2023-04-03T10:06:43;14.63;;;1.10;;
43070;SDS011;36278;47.952;21.714;2023-04-03T10:14:36;4.10;;;0.97;;
43070;SDS011;36278;47.952;21.714;2023-04-03T10:19:52;10.93;;;1.40;;
43070;SDS011;36278;47.952;21.714;2023-04-03T10:25:30;5.13;;;0.87;;
43070;SDS011;36278;47.952;21.714;2023-04-03T10:41:57;2.88;;;1.10;;
43070;SDS011;36278;47.952;21.714;2023-04-03T10:52:22;2.30;;;1.20;;
43070;SDS011;36278;47.952;21.714;2023-04-03T10:58:29;6.83;;;1.10;;
43070;SDS011;36278;47.952;21.714;2023-04-03T11:01:20;7.20;;;1.07;;
43070;SDS011;36278;47.952;21.714;2023-04-03T11:03:52;9.80;;;1.10;;
43070;SDS011;36278;47.952;21.714;2023-04-03T11:06:22;2.93;;;0.90;;
43070;SDS011;36278;47.952;21.714;2023-04-03T11:08:56;5.37;;;1.00;;
43070;SDS011;36278;47.952;21.714;2023-04-03T11:11:36;4.10;;;1.00;;
43070;SDS011;36278;47.952;21.714;2023-04-03T11:14:28;6.07;;;1.03;;
43070;SDS011;36278;47.952;21.714;2023-04-03T11:28:00;4.20;;;1.17;;
43070;SDS011;36278;47.952;21.714;2023-04-03T11:33:21;5.03;;;1.20;;
43070;SDS011;36278;47.952;21.714;2023-04-03T11:35:57;4.63;;;1.40;;
43070;SDS011;36278;47.952;21.714;2023-04-03T11:38:35;12.93;;;1.77;;
43070;SDS011;36278;47.952;21.714;2023-04-03T11:41:06;14.23;;;1.63;;
43070;SDS011;36278;47.952;21.714;2023-04-03T11:43:33;3.30;;;1.30;;
43070;SDS011;36278;47.952;21.714;2023-04-03T11:52:02;4.50;;;1.60;;
43070;SDS011;36278;47.952;21.714;2023-04-03T11:54:36;6.53;;;1.40;;
43070;SDS011;36278;47.952;21.714;2023-04-03T11:57:22;3.07;;;1.63;;
43070;SDS011;36278;47.952;21.714;2023-04-03T12:05:56;6.63;;;1.43;;
43070;SDS011;36278;47.952;21.714;2023-04-03T12:16:25;5.67;;;1.80;;
43070;SDS011;36278;47.952;21.714;2023-04-03T12:21:19;3.37;;;1.60;;
43070;SDS011;36278;47.952;21.714;2023-04-03T12:34:56;4.87;;;1.90;;
43070;SDS011;36278;47.952;21.714;2023-04-03T12:45:40;7.35;;;2.00;;
43070;SDS011;36278;47.952;21.714;2023-04-03T12:48:20;16.20;;;2.30;;
43070;SDS011;36278;47.952;21.714;2023-04-03T12:50:56;16.35;;;2.65;;
43070;SDS011;36278;47.952;21.714;2023-04-03T12:53:27;18.33;;;2.70;;
43070;SDS011;36278;47.952;21.714;2023-04-03T12:58:53;6.47;;;2.07;;
43070;SDS011;36278;47.952;21.714;2023-04-03T13:01:22;7.60;;;1.97;;
43070;SDS011;36278;47.952;21.714;2023-04-03T13:03:53;13.23;;;2.77;;
43070;SDS011;36278;47.952;21.714;2023-04-03T13:06:22;16.53;;;2.47;;
43070;SDS011;36278;47.952;21.714;2023-04-03T13:08:53;7.47;;;1.67;;
43070;SDS011;36278;47.952;21.714;2023-04-03T13:11:22;7.03;;;1.80;;
43070;SDS011;36278;47.952;21.714;2023-04-03T13:13:57;8.77;;;1.80;;
43070;SDS011;36278;47.952;21.714;2023-04-03T13:16:31;5.20;;;1.47;;
43070;SDS011;36278;47.952;21.714;2023-04-03T13:18:58;5.83;;;1.80;;
43070;SDS011;36278;47.952;21.714;2023-04-03T13:21:26;7.40;;;1.80;;
43070;SDS011;36278;47.952;21.714;2023-04-03T13:24:01;7.17;;;2.90;;
43070;SDS011;36278;47.952;21.714;2023-04-03T13:26:30;8.83;;;1.50;;
43070;SDS011;36278;47.952;21.714;2023-04-03T13:29:02;9.13;;;2.13;;
43070;SDS011;36278;47.952;21.714;2023-04-03T13:31:32;9.80;;;1.67;;
43070;SDS011;36278;47.952;21.714;2023-04-03T13:36:42;6.60;;;1.80;;
43070;SDS011;36278;47.952;21.714;2023-04-03T13:41:41;12.90;;;1.70;;
43070;SDS011;36278;47.952;21.714;2023-04-03T13:46:48;7.43;;;1.77;;
43070;SDS011;36278;47.952;21.714;2023-04-03T13:49:17;8.50;;;2.10;;
43070;SDS011;36278;47.952;21.714;2023-04-03T13:51:46;11.65;;;1.98;;
43070;SDS011;36278;47.952;21.714;2023-04-03T13:54:33;12.90;;;2.00;;
43070;SDS011;36278;47.952;21.714;2023-04-03T13:57:03;9.30;;;2.03;;
43070;SDS011;36278;47.952;21.714;2023-04-03T13:59:39;6.33;;;1.77;;
43070;SDS011;36278;47.952;21.714;2023-04-03T14:02:17;12.73;;;1.90;;
43070;SDS011;36278;47.952;21.714;2023-04-03T14:04:55;7.30;;;1.60;;
43070;SDS011;36278;47.952;21.714;2023-04-03T14:07:25;10.67;;;2.03;;
43070;SDS011;36278;47.952;21.714;2023-04-03T14:09:52;13.73;;;2.10;;
43070;SDS011;36278;47.952;21.714;2023-04-03T14:12:24;9.53;;;2.03;;
43070;SDS011;36278;47.952;21.714;2023-04-03T14:14:52;8.03;;;2.20;;
43070;SDS011;36278;47.952;21.714;2023-04-03T14:17:19;5.97;;;1.60;;
43070;SDS011;36278;47.952;21.714;2023-04-03T14:19:48;10.73;;;2.10;;
43070;SDS011;36278;47.952;21.714;2023-04-03T14:22:16;3.20;;;1.53;;
43070;SDS011;36278;47.952;21.714;2023-04-03T14:24:46;12.30;;;2.10;;
43070;SDS011;36278;47.952;21.714;2023-04-03T14:27:16;9.43;;;2.60;;
43070;SDS011;36278;47.952;21.714;2023-04-03T14:29:46;6.33;;;1.67;;
43070;SDS011;36278;47.952;21.714;2023-04-03T14:32:14;12.53;;;2.30;;
43070;SDS011;36278;47.952;21.714;2023-04-03T14:34:41;16.27;;;1.90;;
43070;SDS011;36278;47.952;21.714;2023-04-03T14:37:12;6.57;;;2.03;;
43070;SDS011;36278;47.952;21.714;2023-04-03T14:39:39;7.97;;;1.93;;
43070;SDS011;36278;47.952;21.714;2023-04-03T14:42:06;8.40;;;1.93;;
43070;SDS011;36278;47.952;21.714;2023-04-03T14:44:31;8.70;;;1.83;;
43070;SDS011;36278;47.952;21.714;2023-04-03T14:46:57;7.77;;;1.90;;
43070;SDS011;36278;47.952;21.714;2023-04-03T14:49:28;6.67;;;1.70;;
43070;SDS011;36278;47.952;21.714;2023-04-03T14:51:55;4.93;;;1.77;;
43070;SDS011;36278;47.952;21.714;2023-04-03T14:54:22;11.83;;;2.03;;
43070;SDS011;36278;47.952;21.714;2023-04-03T14:56:52;9.80;;;2.00;;
43070;SDS011;36278;47.952;21.714;2023-04-03T14:59:19;13.33;;;2.37;;
43070;SDS011;36278;47.952;21.714;2023-04-03T15:01:46;18.23;;;2.40;;
43070;SDS011;36278;47.952;21.714;2023-04-03T15:04:17;56.73;;;35.63;;
43070;SDS011;36278;47.952;21.714;2023-04-03T15:06:44;26.33;;;3.87;;
43070;SDS011;36278;47.952;21.714;2023-04-03T15:09:19;9.53;;;2.97;;
43070;SDS011;36278;47.952;21.714;2023-04-03T15:11:49;13.97;;;1.90;;
43070;SDS011;36278;47.952;21.714;2023-04-03T15:14:16;15.70;;;2.07;;
43070;SDS011;36278;47.952;21.714;2023-04-03T15:16:43;5.20;;;1.77;;
43070;SDS011;36278;47.952;21.714;2023-04-03T15:19:09;8.30;;;1.93;;
43070;SDS011;36278;47.952;21.714;2023-04-03T15:21:35;15.73;;;3.00;;
43070;SDS011;36278;47.952;21.714;2023-04-03T15:24:01;10.00;;;1.87;;
43070;SDS011;36278;47.952;21.714;2023-04-03T15:26:26;17.37;;;2.37;;
43070;SDS011;36278;47.952;21.714;2023-04-03T15:28:52;9.63;;;2.30;;
43070;SDS011;36278;47.952;21.714;2023-04-03T15:31:18;6.53;;;1.97;;
43070;SDS011;36278;47.952;21.714;2023-04-03T15:33:43;7.13;;;2.00;;
43070;SDS011;36278;47.952;21.714;2023-04-03T15:36:09;13.73;;;2.30;;
43070;SDS011;36278;47.952;21.714;2023-04-03T15:38:34;9.03;;;1.80;;
43070;SDS011;36278;47.952;21.714;2023-04-03T15:41:00;8.87;;;3.50;;
43070;SDS011;36278;47.952;21.714;2023-04-03T15:43:26;13.03;;;2.30;;
43070;SDS011;36278;47.952;21.714;2023-04-03T15:45:52;10.23;;;2.37;;
43070;SDS011;36278;47.952;21.714;2023-04-03T15:48:22;10.20;;;2.10;;
43070;SDS011;36278;47.952;21.714;2023-04-03T15:50:48;16.87;;;3.20;;
43070;SDS011;36278;47.952;21.714;2023-04-03T15:53:13;9.93;;;1.97;;
43070;SDS011;36278;47.952;21.714;2023-04-03T15:55:39;5.40;;;2.17;;
43070;SDS011;36278;47.952;21.714;2023-04-03T15:58:05;18.10;;;2.57;;
43070;SDS011;36278;47.952;21.714;2023-04-03T16:00:30;13.13;;;2.87;;
43070;SDS011;36278;47.952;21.714;2023-04-03T16:03:00;8.87;;;2.77;;
43070;SDS011;36278;47.952;21.714;2023-04-03T16:05:30;13.27;;;2.42;;
43070;SDS011;36278;47.952;21.714;2023-04-03T16:07:57;19.07;;;2.90;;
43070;SDS011;36278;47.952;21.714;2023-04-03T16:10:25;15.17;;;3.20;;
43070;SDS011;36278;47.952;21.714;2023-04-03T16:12:51;24.03;;;2.23;;
43070;SDS011;36278;47.952;21.714;2023-04-03T16:15:17;10.60;;;2.37;;
43070;SDS011;36278;47.952;21.714;2023-04-03T16:17:42;9.27;;;1.97;;
43070;SDS011;36278;47.952;21.714;2023-04-03T16:20:09;20.63;;;3.23;;
43070;SDS011;36278;47.952;21.714;2023-04-03T16:22:36;22.57;;;3.10;;
43070;SDS011;36278;47.952;21.714;2023-04-03T16:25:03;11.27;;;2.30;;
43070;SDS011;36278;47.952;21.714;2023-04-03T16:27:30;14.10;;;2.47;;
43070;SDS011;36278;47.952;21.714;2023-04-03T16:29:59;13.73;;;2.53;;
43070;SDS011;36278;47.952;21.714;2023-04-03T16:32:25;14.60;;;2.40;;
43070;SDS011;36278;47.952;21.714;2023-04-03T16:34:53;10.70;;;2.33;;
43070;SDS011;36278;47.952;21.714;2023-04-03T16:37:19;17.20;;;2.97;;
43070;SDS011;36278;47.952;21.714;2023-04-03T16:39:45;15.23;;;2.10;;
43070;SDS011;36278;47.952;21.714;2023-04-03T16:42:11;14.83;;;2.20;;
43070;SDS011;36278;47.952;21.714;2023-04-03T16:44:36;16.30;;;2.30;;
43070;SDS011;36278;47.952;21.714;2023-04-03T16:47:02;23.40;;;3.00;;